sensor_id;sensor_type;location;lat;lon;timestamp;P1;durP1;ratioP1;P2;durP2;ratioP2
68593;SDS011;55563;52.416;13.548;2023-02-01T00:00:33;5.13;;;1.20;;
68593;SDS011;55563;52.416;13.548;2023-02-01T00:02:35;5.30;;;1.80;;
68593;SDS011;55563;52.416;13.548;2023-02-01T00:04:39;6.20;;;2.33;;
68593;SDS011;55563;52.416;13.548;2023-02-01T00:06:40;8.02;;;2.10;;
68593;SDS011;55563;52.416;13.548;2023-02-01T00:08:41;6.03;;;2.22;;
68593;SDS011;55563;52.416;13.548;2023-02-01T00:10:41;4.75;;;1.50;;
68593;SDS011;55563;52.416;13.548;2023-02-01T00:12:42;9.27;;;1.83;;
68593;SDS011;55563;52.416;13.548;2023-02-01T00:14:42;6.45;;;1.80;;
68593;SDS011;55563;52.416;13.548;2023-02-01T00:16:43;3.70;;;1.83;;
68593;SDS011;55563;52.416;13.548;2023-02-01T00:18:44;3.78;;;1.90;;
68593;SDS011;55563;52.416;13.548;2023-02-01T00:20:46;4.00;;;1.55;;
68593;SDS011;55563;52.416;13.548;2023-02-01T00:22:47;4.85;;;1.85;;
68593;SDS011;55563;52.416;13.548;2023-02-01T00:24:47;5.25;;;1.52;;
68593;SDS011;55563;52.416;13.548;2023-02-01T00:26:48;5.18;;;1.58;;
68593;SDS011;55563;52.416;13.548;2023-02-01T00:28:48;5.53;;;1.88;;
68593;SDS011;55563;52.416;13.548;2023-02-01T00:30:55;5.68;;;1.73;;
68593;SDS011;55563;52.416;13.548;2023-02-01T00:32:56;3.55;;;1.90;;
68593;SDS011;55563;52.416;13.548;2023-02-01T00:34:57;4.15;;;1.58;;
68593;SDS011;55563;52.416;13.548;2023-02-01T00:36:58;4.65;;;1.60;;
68593;SDS011;55563;52.416;13.548;2023-02-01T00:39:00;9.25;;;2.17;;
68593;SDS011;55563;52.416;13.548;2023-02-01T00:41:01;5.40;;;2.17;;
68593;SDS011;55563;52.416;13.548;2023-02-01T00:43:04;6.93;;;1.83;;
68593;SDS011;55563;52.416;13.548;2023-02-01T00:45:05;7.13;;;2.17;;
68593;SDS011;55563;52.416;13.548;2023-02-01T00:47:06;4.10;;;1.38;;
68593;SDS011;55563;52.416;13.548;2023-02-01T00:49:07;5.97;;;2.05;;
68593;SDS011;55563;52.416;13.548;2023-02-01T00:51:10;3.40;;;1.40;;
68593;SDS011;55563;52.416;13.548;2023-02-01T00:53:13;4.00;;;0.93;;
68593;SDS011;55563;52.416;13.548;2023-02-01T00:55:14;6.90;;;1.98;;
68593;SDS011;55563;52.416;13.548;2023-02-01T00:57:15;5.65;;;1.63;;
68593;SDS011;55563;52.416;13.548;2023-02-01T00:59:15;3.55;;;1.60;;
68593;SDS011;55563;52.416;13.548;2023-02-01T01:01:17;4.03;;;1.20;;
68593;SDS011;55563;52.416;13.548;2023-02-01T01:03:20;6.45;;;1.70;;
68593;SDS011;55563;52.416;13.548;2023-02-01T01:05:20;3.53;;;1.15;;
68593;SDS011;55563;52.416;13.548;2023-02-01T01:07:21;4.57;;;1.63;;
68593;SDS011;55563;52.416;13.548;2023-02-01T01:09:21;4.18;;;1.92;;
68593;SDS011;55563;52.416;13.548;2023-02-01T01:11:24;6.28;;;1.95;;
68593;SDS011;55563;52.416;13.548;2023-02-01T01:13:27;3.05;;;1.52;;
68593;SDS011;55563;52.416;13.548;2023-02-01T01:15:28;3.22;;;1.83;;
68593;SDS011;55563;52.416;13.548;2023-02-01T01:17:28;7.50;;;2.20;;
68593;SDS011;55563;52.416;13.548;2023-02-01T01:19:32;6.53;;;1.73;;
68593;SDS011;55563;52.416;13.548;2023-02-01T01:21:32;6.15;;;1.75;;
68593;SDS011;55563;52.416;13.548;2023-02-01T01:23:34;4.15;;;1.73;;
68593;SDS011;55563;52.416;13.548;2023-02-01T01:25:37;4.80;;;1.42;;
68593;SDS011;55563;52.416;13.548;2023-02-01T01:27:39;5.38;;;1.83;;
68593;SDS011;55563;52.416;13.548;2023-02-01T01:29:40;3.55;;;1.92;;
68593;SDS011;55563;52.416;13.548;2023-02-01T01:31:40;3.90;;;1.90;;
68593;SDS011;55563;52.416;13.548;2023-02-01T01:33:41;4.40;;;1.45;;
68593;SDS011;55563;52.416;13.548;2023-02-01T01:35:43;6.03;;;1.60;;
68593;SDS011;55563;52.416;13.548;2023-02-01T01:37:44;5.70;;;1.48;;
68593;SDS011;55563;52.416;13.548;2023-02-01T01:39:44;2.60;;;1.30;;
68593;SDS011;55563;52.416;13.548;2023-02-01T01:41:45;6.80;;;1.33;;
68593;SDS011;55563;52.416;13.548;2023-02-01T01:43:56;3.30;;;1.73;;
68593;SDS011;55563;52.416;13.548;2023-02-01T01:46:02;4.68;;;1.67;;
68593;SDS011;55563;52.416;13.548;2023-02-01T01:48:05;4.75;;;1.88;;
68593;SDS011;55563;52.416;13.548;2023-02-01T01:50:10;8.60;;;1.75;;
68593;SDS011;55563;52.416;13.548;2023-02-01T01:52:13;6.55;;;1.63;;
68593;SDS011;55563;52.416;13.548;2023-02-01T01:54:16;2.65;;;1.42;;
68593;SDS011;55563;52.416;13.548;2023-02-01T01:56:21;4.65;;;1.65;;
68593;SDS011;55563;52.416;13.548;2023-02-01T01:58:24;6.53;;;1.83;;
68593;SDS011;55563;52.416;13.548;2023-02-01T02:00:28;7.65;;;2.10;;
68593;SDS011;55563;52.416;13.548;2023-02-01T02:02:30;2.58;;;1.58;;
68593;SDS011;55563;52.416;13.548;2023-02-01T02:04:31;5.30;;;1.60;;
68593;SDS011;55563;52.416;13.548;2023-02-01T02:06:38;3.33;;;1.35;;
68593;SDS011;55563;52.416;13.548;2023-02-01T02:08:48;3.35;;;1.40;;
68593;SDS011;55563;52.416;13.548;2023-02-01T02:10:49;5.40;;;1.50;;
68593;SDS011;55563;52.416;13.548;2023-02-01T02:13:06;4.07;;;1.40;;
68593;SDS011;55563;52.416;13.548;2023-02-01T02:15:07;6.18;;;1.40;;
68593;SDS011;55563;52.416;13.548;2023-02-01T02:17:13;3.65;;;1.70;;
68593;SDS011;55563;52.416;13.548;2023-02-01T02:22:15;11.88;;;2.17;;
68593;SDS011;55563;52.416;13.548;2023-02-01T02:27:04;2.88;;;1.42;;
68593;SDS011;55563;52.416;13.548;2023-02-01T02:29:32;3.85;;;2.25;;
68593;SDS011;55563;52.416;13.548;2023-02-01T02:32:04;4.93;;;2.05;;
68593;SDS011;55563;52.416;13.548;2023-02-01T02:39:03;8.55;;;2.03;;
68593;SDS011;55563;52.416;13.548;2023-02-01T02:44:08;5.18;;;1.75;;
68593;SDS011;55563;52.416;13.548;2023-02-01T02:46:38;5.40;;;1.95;;
68593;SDS011;55563;52.416;13.548;2023-02-01T02:49:10;5.90;;;1.73;;
68593;SDS011;55563;52.416;13.548;2023-02-01T02:51:21;7.63;;;2.10;;
68593;SDS011;55563;52.416;13.548;2023-02-01T02:56:04;5.68;;;1.70;;
68593;SDS011;55563;52.416;13.548;2023-02-01T02:58:27;4.88;;;1.58;;
68593;SDS011;55563;52.416;13.548;2023-02-01T03:00:48;4.50;;;1.25;;
68593;SDS011;55563;52.416;13.548;2023-02-01T03:03:10;4.68;;;1.30;;
68593;SDS011;55563;52.416;13.548;2023-02-01T03:08:04;3.42;;;1.50;;
68593;SDS011;55563;52.416;13.548;2023-02-01T03:09:55;6.63;;;1.27;;
68593;SDS011;55563;52.416;13.548;2023-02-01T03:11:58;6.85;;;1.45;;
68593;SDS011;55563;52.416;13.548;2023-02-01T03:14:23;4.13;;;1.60;;
68593;SDS011;55563;52.416;13.548;2023-02-01T03:16:39;6.25;;;1.60;;
68593;SDS011;55563;52.416;13.548;2023-02-01T03:18:50;4.95;;;1.48;;
68593;SDS011;55563;52.416;13.548;2023-02-01T03:21:06;3.42;;;1.17;;
68593;SDS011;55563;52.416;13.548;2023-02-01T03:23:11;5.00;;;1.50;;
68593;SDS011;55563;52.416;13.548;2023-02-01T03:25:18;5.22;;;1.63;;
68593;SDS011;55563;52.416;13.548;2023-02-01T03:27:41;4.43;;;1.55;;
68593;SDS011;55563;52.416;13.548;2023-02-01T03:30:40;5.38;;;1.75;;
68593;SDS011;55563;52.416;13.548;2023-02-01T03:32:46;3.65;;;1.17;;
68593;SDS011;55563;52.416;13.548;2023-02-01T03:35:11;3.75;;;1.10;;
68593;SDS011;55563;52.416;13.548;2023-02-01T03:37:21;3.80;;;1.17;;
68593;SDS011;55563;52.416;13.548;2023-02-01T03:39:32;5.55;;;1.58;;
68593;SDS011;55563;52.416;13.548;2023-02-01T03:41:41;5.38;;;1.27;;
68593;SDS011;55563;52.416;13.548;2023-02-01T03:43:51;6.38;;;1.50;;
68593;SDS011;55563;52.416;13.548;2023-02-01T03:45:58;6.97;;;1.58;;
68593;SDS011;55563;52.416;13.548;2023-02-01T03:48:03;4.53;;;1.20;;
68593;SDS011;55563;52.416;13.548;2023-02-01T03:50:06;7.68;;;1.63;;
68593;SDS011;55563;52.416;13.548;2023-02-01T03:52:12;4.20;;;1.55;;
68593;SDS011;55563;52.416;13.548;2023-02-01T03:54:16;5.80;;;1.35;;
68593;SDS011;55563;52.416;13.548;2023-02-01T03:56:24;3.30;;;1.02;;
68593;SDS011;55563;52.416;13.548;2023-02-01T03:58:28;5.75;;;1.73;;
68593;SDS011;55563;52.416;13.548;2023-02-01T04:00:29;5.93;;;1.80;;
68593;SDS011;55563;52.416;13.548;2023-02-01T04:02:32;6.57;;;1.45;;
68593;SDS011;55563;52.416;13.548;2023-02-01T04:04:33;4.60;;;1.83;;
68593;SDS011;55563;52.416;13.548;2023-02-01T04:06:36;6.63;;;1.23;;
68593;SDS011;55563;52.416;13.548;2023-02-01T04:08:38;6.38;;;1.15;;
68593;SDS011;55563;52.416;13.548;2023-02-01T04:10:39;3.35;;;1.40;;
68593;SDS011;55563;52.416;13.548;2023-02-01T04:12:40;3.08;;;1.42;;
68593;SDS011;55563;52.416;13.548;2023-02-01T04:14:41;2.40;;;1.02;;
68593;SDS011;55563;52.416;13.548;2023-02-01T04:16:42;6.90;;;1.40;;
68593;SDS011;55563;52.416;13.548;2023-02-01T04:18:45;4.20;;;2.03;;
68593;SDS011;55563;52.416;13.548;2023-02-01T04:20:46;4.50;;;1.33;;
68593;SDS011;55563;52.416;13.548;2023-02-01T04:22:47;4.78;;;1.50;;
68593;SDS011;55563;52.416;13.548;2023-02-01T04:24:48;5.53;;;1.30;;
68593;SDS011;55563;52.416;13.548;2023-02-01T04:26:49;5.53;;;1.30;;
68593;SDS011;55563;52.416;13.548;2023-02-01T04:28:49;3.88;;;1.15;;
68593;SDS011;55563;52.416;13.548;2023-02-01T04:30:51;4.60;;;1.63;;
68593;SDS011;55563;52.416;13.548;2023-02-01T04:32:51;5.60;;;1.50;;
68593;SDS011;55563;52.416;13.548;2023-02-01T04:34:52;5.82;;;1.23;;
68593;SDS011;55563;52.416;13.548;2023-02-01T04:36:53;5.45;;;1.48;;
68593;SDS011;55563;52.416;13.548;2023-02-01T04:38:53;5.90;;;1.45;;
68593;SDS011;55563;52.416;13.548;2023-02-01T04:40:54;5.35;;;1.63;;
68593;SDS011;55563;52.416;13.548;2023-02-01T04:42:55;5.30;;;1.35;;
68593;SDS011;55563;52.416;13.548;2023-02-01T04:44:55;6.47;;;1.52;;
68593;SDS011;55563;52.416;13.548;2023-02-01T04:46:56;4.40;;;1.52;;
68593;SDS011;55563;52.416;13.548;2023-02-01T04:48:57;8.77;;;1.52;;
68593;SDS011;55563;52.416;13.548;2023-02-01T04:50:58;7.25;;;1.35;;
68593;SDS011;55563;52.416;13.548;2023-02-01T04:52:59;4.63;;;1.40;;
68593;SDS011;55563;52.416;13.548;2023-02-01T04:54:59;10.10;;;1.90;;
68593;SDS011;55563;52.416;13.548;2023-02-01T04:57:02;6.82;;;1.48;;
68593;SDS011;55563;52.416;13.548;2023-02-01T04:59:03;6.05;;;1.35;;
68593;SDS011;55563;52.416;13.548;2023-02-01T05:01:05;6.05;;;1.48;;
68593;SDS011;55563;52.416;13.548;2023-02-01T05:03:07;6.22;;;1.50;;
68593;SDS011;55563;52.416;13.548;2023-02-01T05:05:07;8.50;;;1.77;;
68593;SDS011;55563;52.416;13.548;2023-02-01T05:07:08;8.25;;;1.98;;
68593;SDS011;55563;52.416;13.548;2023-02-01T05:09:09;7.55;;;2.00;;
68593;SDS011;55563;52.416;13.548;2023-02-01T05:11:10;5.97;;;2.25;;
68593;SDS011;55563;52.416;13.548;2023-02-01T05:13:30;11.13;;;2.78;;
68593;SDS011;55563;52.416;13.548;2023-02-01T05:17:51;5.47;;;1.45;;
68593;SDS011;55563;52.416;13.548;2023-02-01T05:19:52;4.03;;;1.27;;
68593;SDS011;55563;52.416;13.548;2023-02-01T05:21:53;4.75;;;1.63;;
68593;SDS011;55563;52.416;13.548;2023-02-01T05:23:54;4.00;;;1.02;;
68593;SDS011;55563;52.416;13.548;2023-02-01T05:26:09;8.18;;;1.83;;
68593;SDS011;55563;52.416;13.548;2023-02-01T05:28:10;8.30;;;1.40;;
68593;SDS011;55563;52.416;13.548;2023-02-01T05:30:11;9.38;;;1.77;;
68593;SDS011;55563;52.416;13.548;2023-02-01T05:32:12;2.97;;;1.40;;
68593;SDS011;55563;52.416;13.548;2023-02-01T05:34:13;7.25;;;1.70;;
68593;SDS011;55563;52.416;13.548;2023-02-01T05:38:15;8.30;;;1.48;;
68593;SDS011;55563;52.416;13.548;2023-02-01T05:40:15;8.38;;;2.10;;
68593;SDS011;55563;52.416;13.548;2023-02-01T05:42:16;2.78;;;1.10;;
68593;SDS011;55563;52.416;13.548;2023-02-01T05:44:17;5.88;;;1.50;;
68593;SDS011;55563;52.416;13.548;2023-02-01T05:46:18;5.95;;;1.42;;
68593;SDS011;55563;52.416;13.548;2023-02-01T05:48:19;7.68;;;1.88;;
68593;SDS011;55563;52.416;13.548;2023-02-01T05:50:19;7.38;;;2.10;;
68593;SDS011;55563;52.416;13.548;2023-02-01T05:52:20;5.63;;;1.58;;
68593;SDS011;55563;52.416;13.548;2023-02-01T05:54:21;3.55;;;1.15;;
68593;SDS011;55563;52.416;13.548;2023-02-01T05:56:22;5.85;;;1.60;;
68593;SDS011;55563;52.416;13.548;2023-02-01T05:58:22;5.00;;;1.15;;
68593;SDS011;55563;52.416;13.548;2023-02-01T06:00:23;3.33;;;1.60;;
68593;SDS011;55563;52.416;13.548;2023-02-01T06:02:24;4.47;;;1.23;;
68593;SDS011;55563;52.416;13.548;2023-02-01T06:04:25;7.00;;;1.52;;
68593;SDS011;55563;52.416;13.548;2023-02-01T06:06:26;3.03;;;1.42;;
68593;SDS011;55563;52.416;13.548;2023-02-01T06:08:27;5.43;;;1.55;;
68593;SDS011;55563;52.416;13.548;2023-02-01T06:10:28;4.57;;;1.70;;
68593;SDS011;55563;52.416;13.548;2023-02-01T06:12:29;4.18;;;1.23;;
68593;SDS011;55563;52.416;13.548;2023-02-01T06:14:30;4.65;;;1.35;;
68593;SDS011;55563;52.416;13.548;2023-02-01T06:16:30;6.55;;;1.90;;
68593;SDS011;55563;52.416;13.548;2023-02-01T06:18:31;7.80;;;1.67;;
68593;SDS011;55563;52.416;13.548;2023-02-01T06:20:35;4.05;;;1.40;;
68593;SDS011;55563;52.416;13.548;2023-02-01T06:22:35;3.30;;;1.30;;
68593;SDS011;55563;52.416;13.548;2023-02-01T06:24:36;4.93;;;1.63;;
68593;SDS011;55563;52.416;13.548;2023-02-01T06:26:37;6.72;;;1.63;;
68593;SDS011;55563;52.416;13.548;2023-02-01T06:28:39;4.10;;;1.60;;
68593;SDS011;55563;52.416;13.548;2023-02-01T06:30:48;8.57;;;1.70;;
68593;SDS011;55563;52.416;13.548;2023-02-01T06:32:52;5.32;;;2.08;;
68593;SDS011;55563;52.416;13.548;2023-02-01T06:34:54;5.90;;;1.60;;
68593;SDS011;55563;52.416;13.548;2023-02-01T06:36:56;6.18;;;1.88;;
68593;SDS011;55563;52.416;13.548;2023-02-01T06:39:01;7.97;;;1.98;;
68593;SDS011;55563;52.416;13.548;2023-02-01T06:41:04;6.60;;;1.70;;
68593;SDS011;55563;52.416;13.548;2023-02-01T06:43:05;5.38;;;1.40;;
68593;SDS011;55563;52.416;13.548;2023-02-01T06:45:06;5.65;;;1.70;;
68593;SDS011;55563;52.416;13.548;2023-02-01T06:47:08;5.80;;;1.55;;
68593;SDS011;55563;52.416;13.548;2023-02-01T06:49:09;4.22;;;1.23;;
68593;SDS011;55563;52.416;13.548;2023-02-01T06:51:25;2.58;;;1.05;;
68593;SDS011;55563;52.416;13.548;2023-02-01T06:53:28;4.53;;;1.52;;
68593;SDS011;55563;52.416;13.548;2023-02-01T06:55:29;4.70;;;1.40;;
68593;SDS011;55563;52.416;13.548;2023-02-01T06:57:29;7.60;;;1.55;;
68593;SDS011;55563;52.416;13.548;2023-02-01T06:59:33;5.72;;;1.50;;
68593;SDS011;55563;52.416;13.548;2023-02-01T07:01:34;7.28;;;1.58;;
68593;SDS011;55563;52.416;13.548;2023-02-01T07:03:35;4.07;;;1.20;;
68593;SDS011;55563;52.416;13.548;2023-02-01T07:05:36;6.97;;;1.70;;
68593;SDS011;55563;52.416;13.548;2023-02-01T07:07:36;4.80;;;1.52;;
68593;SDS011;55563;52.416;13.548;2023-02-01T07:09:37;6.38;;;1.42;;
68593;SDS011;55563;52.416;13.548;2023-02-01T07:11:38;6.88;;;1.90;;
68593;SDS011;55563;52.416;13.548;2023-02-01T07:13:43;4.18;;;1.58;;
68593;SDS011;55563;52.416;13.548;2023-02-01T07:15:44;6.45;;;1.75;;
68593;SDS011;55563;52.416;13.548;2023-02-01T07:17:47;7.30;;;1.67;;
68593;SDS011;55563;52.416;13.548;2023-02-01T07:19:49;3.80;;;1.60;;
68593;SDS011;55563;52.416;13.548;2023-02-01T07:21:50;3.80;;;1.60;;
68593;SDS011;55563;52.416;13.548;2023-02-01T07:23:50;4.65;;;1.77;;
68593;SDS011;55563;52.416;13.548;2023-02-01T07:25:55;1.27;;;1.00;;
68593;SDS011;55563;52.416;13.548;2023-02-01T07:27:57;6.18;;;1.77;;
68593;SDS011;55563;52.416;13.548;2023-02-01T07:29:58;5.30;;;1.52;;
68593;SDS011;55563;52.416;13.548;2023-02-01T07:32:02;7.10;;;1.50;;
68593;SDS011;55563;52.416;13.548;2023-02-01T07:34:03;5.32;;;1.33;;
68593;SDS011;55563;52.416;13.548;2023-02-01T07:36:04;3.75;;;1.45;;
68593;SDS011;55563;52.416;13.548;2023-02-01T07:38:06;4.18;;;1.65;;
68593;SDS011;55563;52.416;13.548;2023-02-01T07:40:07;8.60;;;2.08;;
68593;SDS011;55563;52.416;13.548;2023-02-01T07:44:09;6.03;;;1.90;;
68593;SDS011;55563;52.416;13.548;2023-02-01T07:46:10;4.85;;;1.70;;
68593;SDS011;55563;52.416;13.548;2023-02-01T07:48:11;5.68;;;1.85;;
68593;SDS011;55563;52.416;13.548;2023-02-01T07:50:12;3.35;;;1.27;;
68593;SDS011;55563;52.416;13.548;2023-02-01T07:52:13;3.25;;;1.38;;
68593;SDS011;55563;52.416;13.548;2023-02-01T07:54:16;5.70;;;1.90;;
68593;SDS011;55563;52.416;13.548;2023-02-01T07:56:18;4.22;;;1.42;;
68593;SDS011;55563;52.416;13.548;2023-02-01T07:58:20;5.45;;;1.50;;
68593;SDS011;55563;52.416;13.548;2023-02-01T08:00:21;4.65;;;1.48;;
68593;SDS011;55563;52.416;13.548;2023-02-01T08:02:42;4.60;;;1.48;;
68593;SDS011;55563;52.416;13.548;2023-02-01T08:04:43;4.88;;;1.35;;
68593;SDS011;55563;52.416;13.548;2023-02-01T08:06:43;5.15;;;2.00;;
68593;SDS011;55563;52.416;13.548;2023-02-01T08:08:44;4.10;;;1.60;;
68593;SDS011;55563;52.416;13.548;2023-02-01T08:10:47;4.63;;;1.45;;
68593;SDS011;55563;52.416;13.548;2023-02-01T08:12:48;2.05;;;1.15;;
68593;SDS011;55563;52.416;13.548;2023-02-01T08:14:49;6.55;;;1.67;;
68593;SDS011;55563;52.416;13.548;2023-02-01T08:16:49;3.88;;;1.48;;
68593;SDS011;55563;52.416;13.548;2023-02-01T08:18:50;3.30;;;1.70;;
68593;SDS011;55563;52.416;13.548;2023-02-01T08:20:51;5.25;;;1.67;;
68593;SDS011;55563;52.416;13.548;2023-02-01T08:22:52;3.53;;;1.63;;
68593;SDS011;55563;52.416;13.548;2023-02-01T08:24:53;5.00;;;2.03;;
68593;SDS011;55563;52.416;13.548;2023-02-01T08:27:01;2.25;;;1.35;;
68593;SDS011;55563;52.416;13.548;2023-02-01T08:29:04;3.17;;;1.13;;
68593;SDS011;55563;52.416;13.548;2023-02-01T08:31:07;8.52;;;1.90;;
68593;SDS011;55563;52.416;13.548;2023-02-01T08:33:09;3.65;;;1.40;;
68593;SDS011;55563;52.416;13.548;2023-02-01T08:35:10;3.22;;;1.33;;
68593;SDS011;55563;52.416;13.548;2023-02-01T08:37:11;3.65;;;1.60;;
68593;SDS011;55563;52.416;13.548;2023-02-01T08:39:11;3.35;;;1.65;;
68593;SDS011;55563;52.416;13.548;2023-02-01T08:41:13;3.92;;;1.60;;
68593;SDS011;55563;52.416;13.548;2023-02-01T08:43:18;3.40;;;1.20;;
68593;SDS011;55563;52.416;13.548;2023-02-01T08:45:20;6.07;;;1.63;;
68593;SDS011;55563;52.416;13.548;2023-02-01T08:47:24;5.28;;;1.65;;
68593;SDS011;55563;52.416;13.548;2023-02-01T08:49:24;3.55;;;1.75;;
68593;SDS011;55563;52.416;13.548;2023-02-01T08:51:25;2.85;;;1.55;;
68593;SDS011;55563;52.416;13.548;2023-02-01T08:53:26;2.88;;;1.73;;
68593;SDS011;55563;52.416;13.548;2023-02-01T08:55:26;5.07;;;1.90;;
68593;SDS011;55563;52.416;13.548;2023-02-01T08:57:28;5.82;;;1.80;;
68593;SDS011;55563;52.416;13.548;2023-02-01T08:59:28;3.55;;;1.73;;
68593;SDS011;55563;52.416;13.548;2023-02-01T09:01:29;3.10;;;1.38;;
68593;SDS011;55563;52.416;13.548;2023-02-01T09:03:30;4.90;;;1.90;;
68593;SDS011;55563;52.416;13.548;2023-02-01T09:05:31;3.53;;;1.25;;
68593;SDS011;55563;52.416;13.548;2023-02-01T09:07:32;3.65;;;1.42;;
68593;SDS011;55563;52.416;13.548;2023-02-01T09:09:34;3.47;;;1.90;;
68593;SDS011;55563;52.416;13.548;2023-02-01T09:11:35;3.90;;;1.23;;
68593;SDS011;55563;52.416;13.548;2023-02-01T09:13:35;1.88;;;1.10;;
68593;SDS011;55563;52.416;13.548;2023-02-01T09:15:37;1.48;;;1.13;;
68593;SDS011;55563;52.416;13.548;2023-02-01T09:17:39;3.03;;;1.10;;
68593;SDS011;55563;52.416;13.548;2023-02-01T09:19:41;2.72;;;1.10;;
68593;SDS011;55563;52.416;13.548;2023-02-01T09:21:42;0.75;;;0.75;;
68593;SDS011;55563;52.416;13.548;2023-02-01T09:23:43;2.45;;;0.85;;
68593;SDS011;55563;52.416;13.548;2023-02-01T09:25:44;1.70;;;0.73;;
68593;SDS011;55563;52.416;13.548;2023-02-01T09:28:10;1.15;;;1.02;;
68593;SDS011;55563;52.416;13.548;2023-02-01T09:30:11;1.20;;;0.85;;
68593;SDS011;55563;52.416;13.548;2023-02-01T09:32:12;1.00;;;0.70;;
68593;SDS011;55563;52.416;13.548;2023-02-01T09:34:13;1.40;;;1.00;;
68593;SDS011;55563;52.416;13.548;2023-02-01T09:36:13;3.17;;;1.40;;
68593;SDS011;55563;52.416;13.548;2023-02-01T09:38:14;3.35;;;1.52;;
68593;SDS011;55563;52.416;13.548;2023-02-01T09:40:15;1.38;;;0.82;;
68593;SDS011;55563;52.416;13.548;2023-02-01T09:45:20;1.45;;;1.02;;
68593;SDS011;55563;52.416;13.548;2023-02-01T09:47:17;1.77;;;0.80;;
68593;SDS011;55563;52.416;13.548;2023-02-01T09:49:20;1.30;;;0.88;;
68593;SDS011;55563;52.416;13.548;2023-02-01T09:51:30;1.52;;;0.95;;
68593;SDS011;55563;52.416;13.548;2023-02-01T09:53:37;2.05;;;0.85;;
68593;SDS011;55563;52.416;13.548;2023-02-01T10:00:15;1.13;;;1.00;;
68593;SDS011;55563;52.416;13.548;2023-02-01T10:01:33;1.40;;;1.10;;
68593;SDS011;55563;52.416;13.548;2023-02-01T10:03:35;1.67;;;1.30;;
68593;SDS011;55563;52.416;13.548;2023-02-01T10:07:59;3.40;;;1.30;;
68593;SDS011;55563;52.416;13.548;2023-02-01T10:12:28;1.50;;;1.20;;
68593;SDS011;55563;52.416;13.548;2023-02-01T10:14:46;1.48;;;0.80;;
68593;SDS011;55563;52.416;13.548;2023-02-01T10:16:57;1.15;;;0.73;;
68593;SDS011;55563;52.416;13.548;2023-02-01T10:19:22;1.50;;;0.88;;
68593;SDS011;55563;52.416;13.548;2023-02-01T10:21:40;1.67;;;1.02;;
68593;SDS011;55563;52.416;13.548;2023-02-01T10:26:35;1.23;;;1.00;;
68593;SDS011;55563;52.416;13.548;2023-02-01T10:28:50;1.75;;;1.10;;
68593;SDS011;55563;52.416;13.548;2023-02-01T10:31:20;2.03;;;0.82;;
68593;SDS011;55563;52.416;13.548;2023-02-01T10:35:52;2.42;;;0.98;;
68593;SDS011;55563;52.416;13.548;2023-02-01T10:38:27;1.42;;;0.70;;
68593;SDS011;55563;52.416;13.548;2023-02-01T10:40:35;2.45;;;0.98;;
68593;SDS011;55563;52.416;13.548;2023-02-01T10:43:05;1.63;;;0.70;;
68593;SDS011;55563;52.416;13.548;2023-02-01T10:45:13;2.83;;;1.00;;
68593;SDS011;55563;52.416;13.548;2023-02-01T10:47:40;2.80;;;1.10;;
68593;SDS011;55563;52.416;13.548;2023-02-01T10:49:58;1.42;;;0.70;;
68593;SDS011;55563;52.416;13.548;2023-02-01T10:52:16;2.03;;;0.90;;
68593;SDS011;55563;52.416;13.548;2023-02-01T10:54:38;1.58;;;0.80;;
68593;SDS011;55563;52.416;13.548;2023-02-01T10:56:39;2.13;;;0.73;;
68593;SDS011;55563;52.416;13.548;2023-02-01T10:58:44;1.50;;;0.70;;
68593;SDS011;55563;52.416;13.548;2023-02-01T11:00:48;1.58;;;0.60;;
68593;SDS011;55563;52.416;13.548;2023-02-01T11:02:54;2.17;;;0.52;;
68593;SDS011;55563;52.416;13.548;2023-02-01T11:04:58;1.30;;;0.70;;
68593;SDS011;55563;52.416;13.548;2023-02-01T11:07:07;0.75;;;0.68;;
68593;SDS011;55563;52.416;13.548;2023-02-01T11:09:18;2.60;;;0.70;;
68593;SDS011;55563;52.416;13.548;2023-02-01T11:11:21;1.10;;;0.70;;
68593;SDS011;55563;52.416;13.548;2023-02-01T11:13:22;1.45;;;0.80;;
68593;SDS011;55563;52.416;13.548;2023-02-01T11:15:29;1.33;;;0.73;;
68593;SDS011;55563;52.416;13.548;2023-02-01T11:17:35;2.60;;;0.80;;
68593;SDS011;55563;52.416;13.548;2023-02-01T11:19:47;1.17;;;0.65;;
68593;SDS011;55563;52.416;13.548;2023-02-01T11:21:58;1.15;;;0.60;;
68593;SDS011;55563;52.416;13.548;2023-02-01T11:24:02;3.08;;;0.90;;
68593;SDS011;55563;52.416;13.548;2023-02-01T11:26:11;4.22;;;1.23;;
68593;SDS011;55563;52.416;13.548;2023-02-01T11:28:14;2.92;;;0.85;;
68593;SDS011;55563;52.416;13.548;2023-02-01T11:30:17;3.13;;;1.10;;
68593;SDS011;55563;52.416;13.548;2023-02-01T11:32:32;3.75;;;0.90;;
68593;SDS011;55563;52.416;13.548;2023-02-01T11:34:36;2.80;;;0.90;;
68593;SDS011;55563;52.416;13.548;2023-02-01T11:36:40;1.63;;;0.73;;
68593;SDS011;55563;52.416;13.548;2023-02-01T11:38:45;2.25;;;1.05;;
68593;SDS011;55563;52.416;13.548;2023-02-01T11:40:53;1.92;;;0.68;;
68593;SDS011;55563;52.416;13.548;2023-02-01T11:42:54;3.63;;;1.10;;
68593;SDS011;55563;52.416;13.548;2023-02-01T11:45:15;3.13;;;1.20;;
68593;SDS011;55563;52.416;13.548;2023-02-01T11:47:20;2.10;;;0.80;;
68593;SDS011;55563;52.416;13.548;2023-02-01T11:49:25;1.85;;;1.08;;
68593;SDS011;55563;52.416;13.548;2023-02-01T11:51:32;2.83;;;1.17;;
68593;SDS011;55563;52.416;13.548;2023-02-01T11:53:47;2.50;;;0.82;;
68593;SDS011;55563;52.416;13.548;2023-02-01T12:01:11;3.67;;;1.38;;
68593;SDS011;55563;52.416;13.548;2023-02-01T12:06:18;2.45;;;1.95;;
68593;SDS011;55563;52.416;13.548;2023-02-01T12:14:14;2.80;;;1.15;;
68593;SDS011;55563;52.416;13.548;2023-02-01T12:16:39;3.05;;;1.63;;
68593;SDS011;55563;52.416;13.548;2023-02-01T12:32:05;2.97;;;2.22;;
68593;SDS011;55563;52.416;13.548;2023-02-01T12:39:31;2.72;;;0.93;;
68593;SDS011;55563;52.416;13.548;2023-02-01T12:42:27;2.28;;;0.80;;
68593;SDS011;55563;52.416;13.548;2023-02-01T12:46:46;2.38;;;0.90;;
68593;SDS011;55563;52.416;13.548;2023-02-01T12:49:21;10.43;;;2.13;;
68593;SDS011;55563;52.416;13.548;2023-02-01T12:52:04;1.63;;;1.02;;
68593;SDS011;55563;52.416;13.548;2023-02-01T12:54:43;2.40;;;0.90;;
68593;SDS011;55563;52.416;13.548;2023-02-01T12:57:20;3.45;;;1.23;;
68593;SDS011;55563;52.416;13.548;2023-02-01T12:59:40;2.20;;;1.00;;
68593;SDS011;55563;52.416;13.548;2023-02-01T13:04:51;1.27;;;0.73;;
68593;SDS011;55563;52.416;13.548;2023-02-01T13:07:37;2.45;;;1.33;;
68593;SDS011;55563;52.416;13.548;2023-02-01T13:09:51;2.35;;;0.80;;
68593;SDS011;55563;52.416;13.548;2023-02-01T13:12:18;1.58;;;0.73;;
68593;SDS011;55563;52.416;13.548;2023-02-01T13:14:57;3.75;;;0.90;;
68593;SDS011;55563;52.416;13.548;2023-02-01T13:17:23;2.35;;;1.02;;
68593;SDS011;55563;52.416;13.548;2023-02-01T13:19:42;1.27;;;0.63;;
68593;SDS011;55563;52.416;13.548;2023-02-01T13:22:11;2.15;;;1.13;;
68593;SDS011;55563;52.416;13.548;2023-02-01T13:24:33;1.90;;;0.77;;
68593;SDS011;55563;52.416;13.548;2023-02-01T13:26:59;2.30;;;0.90;;
68593;SDS011;55563;52.416;13.548;2023-02-01T13:29:08;1.20;;;0.65;;
68593;SDS011;55563;52.416;13.548;2023-02-01T13:42:51;3.03;;;1.13;;
68593;SDS011;55563;52.416;13.548;2023-02-01T13:45:22;2.33;;;0.93;;
68593;SDS011;55563;52.416;13.548;2023-02-01T13:47:34;1.52;;;0.95;;
68593;SDS011;55563;52.416;13.548;2023-02-01T13:50:13;5.70;;;1.55;;
68593;SDS011;55563;52.416;13.548;2023-02-01T13:52:51;1.58;;;0.70;;
68593;SDS011;55563;52.416;13.548;2023-02-01T13:55:16;3.20;;;1.20;;
68593;SDS011;55563;52.416;13.548;2023-02-01T13:57:37;2.33;;;0.90;;
68593;SDS011;55563;52.416;13.548;2023-02-01T14:00:20;3.13;;;1.10;;